< Cyclone 199603 1996 Season Cyclone 199605 >
Cyclone 199604 (GERTIE)
General InformationDetailed Track InformationTrack Information on Google MapsList of All Images || ResourceGoogle EarthGE AnimationAtom FeedGeoJSON
Detalied Best Track Wind (Time Zone = UTC)
Year Month Day Hour Lat. Long. Wind (kt) Gust (kt) Direc. of Major Storm Axis Radius of Major Storm Axis (nm) Radius of Minor Storm Axis (nm) Direc. of Major Gale Axis Radius of Major Gale Axis (nm) Radius of Minor Gale Axis (nm) Image
1995 12 17 07 -13.1 125.5 27 -1 symmetric - - symmetric - - Image
1995 12 17 10 -13.3 125.1 27 -1 symmetric - - symmetric - - Image
1995 12 17 13 -13.5 124.7 27 -1 symmetric - - symmetric - - Image
1995 12 17 16 -13.7 124.3 27 -1 symmetric - - symmetric - - Image
1995 12 17 19 -14.0 123.9 29 -1 symmetric - - symmetric - - Image
1995 12 17 22 -14.3 123.3 29 -1 symmetric - - symmetric - - Image
1995 12 18 01 -14.6 122.8 29 -1 symmetric - - symmetric - - Image
1995 12 18 04 -14.9 122.4 35 -1 symmetric - - symmetric - - Image
1995 12 18 07 -15.2 122.1 41 -1 symmetric - - symmetric - - Image
1995 12 18 10 -15.4 121.8 47 -1 symmetric - - symmetric - - Image
1995 12 18 13 -15.6 121.6 47 -1 symmetric - - symmetric - - Image
1995 12 18 16 -15.9 121.4 54 -1 symmetric - - symmetric - - Image
1995 12 18 19 -16.2 121.2 54 -1 symmetric - - symmetric - - Image
1995 12 18 22 -16.7 120.9 60 -1 symmetric - - symmetric - - Image
1995 12 19 01 -17.3 120.7 60 -1 symmetric - - symmetric - - Image
1995 12 19 04 -17.8 120.3 66 -1 symmetric - - symmetric - - Image
1995 12 19 07 -18.1 119.8 66 -1 symmetric - - symmetric - - Image
1995 12 19 10 -18.1 119.9 70 -1 symmetric - - symmetric - - Image
1995 12 19 13 -18.3 120.0 70 -1 symmetric - - symmetric - - Image
1995 12 19 16 -18.6 120.0 70 -1 symmetric - - symmetric - - Image
1995 12 19 19 -19.0 120.4 70 -1 symmetric - - symmetric - - Image
1995 12 19 22 -19.3 120.6 70 -1 symmetric - - symmetric - - Image
1995 12 20 01 -19.7 120.9 70 -1 symmetric - - symmetric - - Image
1995 12 20 04 -20.0 121.2 66 -1 symmetric - - symmetric - - Image
1995 12 20 07 -20.4 121.4 66 -1 symmetric - - symmetric - - Image
1995 12 20 10 -20.8 121.9 60 -1 symmetric - - symmetric - - Image
1995 12 20 13 -21.2 122.4 54 -1 symmetric - - symmetric - - Image
1995 12 20 16 -21.7 122.9 47 -1 symmetric - - symmetric - - Image
1995 12 20 19 -22.1 123.5 41 -1 symmetric - - symmetric - - Image
1995 12 20 22 -22.5 124.4 41 -1 symmetric - - symmetric - - Image
1995 12 21 01 -23.0 125.2 41 -1 symmetric - - symmetric - - Image
1995 12 21 04 -23.4 126.3 41 -1 symmetric - - symmetric - - Image
1995 12 21 07 -23.8 127.3 41 -1 symmetric - - symmetric - - Image
1995 12 21 10 -24.3 128.2 41 -1 symmetric - - symmetric - - Image
1995 12 21 13 -24.6 129.2 41 -1 symmetric - - symmetric - - Image
1995 12 21 16 -25.1 130.2 41 -1 symmetric - - symmetric - - Image
1995 12 21 19 -25.7 131.8 39 -1 symmetric - - symmetric - - Image
1995 12 21 22 -26.2 133.4 39 -1 symmetric - - symmetric - - Image
1995 12 22 01 -26.5 134.8 35 -1 symmetric - - symmetric - - Image
1995 12 22 13 -26.9 141.0 33 -1 symmetric - - symmetric - - Image
1995 12 23 01 -24.9 149.0 33 -1 symmetric - - symmetric - - Image
1995 12 23 13 -25.9 154.0 35 -1 symmetric - - symmetric - - Image
1995 12 24 01 -23.9 157.0 41 -1 symmetric - - symmetric - - Image
1995 12 24 13 -22.9 163.0 41 -1 symmetric - - symmetric - - Image
< Cyclone 199603 1996 Season Cyclone 199605 >

Help